Time;durP1;ratioP1;P1;durP2;ratioP2;P2;SDS_P1;SDS_P2;PMS_P1;PMS_P2;Temp;Humidity;BMP_temperature;BMP_pressure;BME280_temperature;BME280_humidity;BME280_pressure;Samples;Min_cycle;Max_cycle;Signal;HPM_P1;HPM_P2
2021/11/12 00:13:04;;;;;;;10.13;5.87;;;;;;;5.02;86.02;99983.03;5053913;28;20278;-73
2021/11/12 00:15:30;;;;;;;7.87;6.30;;;;;;;5.07;86.71;99983.44;5053611;28;20041;-69
2021/11/12 00:17:56;;;;;;;9.90;6.83;;;;;;;5.05;86.54;99974.00;5053899;28;20382;-71
2021/11/12 00:20:21;;;;;;;11.60;6.47;;;;;;;5.06;86.17;99973.84;5053802;28;20033;-70
2021/11/12 00:22:49;;;;;;;7.43;6.03;;;;;;;5.06;85.85;99962.47;5054067;28;20197;-73
2021/11/12 00:25:15;;;;;;;8.52;6.75;;;;;;;5.07;86.58;99959.66;5055515;28;20039;-70
2021/11/12 00:27:41;;;;;;;8.10;5.07;;;;;;;5.09;85.21;99947.16;5061404;28;20045;-69
2021/11/12 00:33:23;;;;;;;7.60;5.60;;;;;;;5.16;85.64;99942.94;5053727;28;20080;-70
2021/11/12 00:36:06;;;;;;;22.77;7.78;;;;;;;5.13;85.09;99932.69;5035610;28;20436;-72
2021/11/12 00:38:39;;;;;;;9.33;6.37;;;;;;;5.13;85.06;99937.13;5054675;28;20051;-69
2021/11/12 00:43:52;;;;;;;10.80;6.03;;;;;;;4.94;85.25;99898.50;5054048;28;20047;-69
2021/11/12 00:48:58;;;;;;;7.90;5.23;;;;;;;4.97;85.29;99900.84;5052846;28;20033;-69
2021/11/12 00:51:26;;;;;;;9.20;5.53;;;;;;;5.00;84.86;99900.56;5036862;28;20263;-69
2021/11/12 00:56:27;;;;;;;9.17;5.33;;;;;;;5.10;84.50;99906.59;5053312;28;20120;-70
2021/11/12 00:58:54;;;;;;;8.70;5.13;;;;;;;5.15;84.18;99908.78;5053296;28;20317;-69
2021/11/12 01:01:21;;;;;;;9.10;5.13;;;;;;;5.16;84.54;99895.44;5053185;28;20053;-71
2021/11/12 01:03:48;;;;;;;6.93;5.07;;;;;;;5.15;84.42;99891.13;5053163;28;20055;-70
2021/11/12 01:06:15;;;;;;;10.40;5.07;;;;;;;5.18;84.77;99887.38;5052892;28;20354;-68
2021/11/12 01:08:42;;;;;;;10.33;5.10;;;;;;;5.16;84.33;99868.22;5052808;28;20276;-70
2021/11/12 01:11:10;;;;;;;6.27;4.93;;;;;;;5.23;84.53;99872.75;5052831;28;20037;-69
2021/11/12 01:13:36;;;;;;;7.03;5.40;;;;;;;5.27;84.36;99878.56;5052928;28;20041;-70
2021/11/12 01:16:03;;;;;;;7.00;4.73;;;;;;;5.29;83.93;99869.50;5052629;28;20043;-67
2021/11/12 01:18:29;;;;;;;5.90;4.73;;;;;;;5.28;84.33;99862.56;5052460;28;20067;-65
2021/11/12 01:20:54;;;;;;;5.60;4.50;;;;;;;5.32;83.29;99864.91;5052460;28;20122;-66
2021/11/12 01:23:21;;;;;;;7.30;6.23;;;;;;;5.29;83.99;99858.97;5052653;28;20033;-68
2021/11/12 01:25:46;;;;;;;7.60;4.90;;;;;;;5.36;83.44;99866.25;5052496;28;20550;-67
2021/11/12 01:28:12;;;;;;;9.07;6.17;;;;;;;5.41;83.62;99866.63;5052302;28;20291;-70
2021/11/12 01:30:38;;;;;;;8.60;6.00;;;;;;;5.42;83.14;99869.13;5034466;28;20047;-72
2021/11/12 01:33:04;;;;;;;9.50;5.60;;;;;;;5.40;83.00;99864.97;5030210;28;20033;-70
2021/11/12 01:35:31;;;;;;;7.17;5.93;;;;;;;5.42;83.46;99863.00;5041863;28;20059;-72
2021/11/12 01:37:57;;;;;;;10.73;5.80;;;;;;;5.43;83.27;99867.31;5033985;28;20033;-71
2021/11/12 01:40:25;;;;;;;9.27;6.53;;;;;;;5.40;82.34;99867.63;5038486;28;20267;-71
2021/11/12 01:43:09;;;;;;;9.40;6.82;;;;;;;5.41;82.74;99867.47;5038408;28;20486;-71
2021/11/12 01:48:23;;;;;;;10.07;7.23;;;;;;;5.36;82.89;99859.16;5043030;28;20088;-73
2021/11/12 01:51:26;;;;;;;10.47;6.23;;;;;;;5.36;83.08;99858.34;5043358;28;20426;-71
2021/11/12 01:53:44;;;;;;;7.37;4.93;;;;;;;5.31;82.71;99848.25;5036256;28;20049;-72
2021/11/12 02:01:04;;;;;;;6.32;3.47;;;;;;;5.14;83.26;99841.13;5039977;28;20037;-71
2021/11/12 02:03:29;;;;;;;5.50;3.23;;;;;;;5.15;83.83;99842.78;5040804;28;20025;-71
2021/11/12 02:05:55;;;;;;;3.70;3.03;;;;;;;5.02;82.48;99835.25;5043014;28;20029;-70
2021/11/12 02:08:20;;;;;;;5.10;3.20;;;;;;;4.96;83.71;99831.41;5033166;28;20036;-71
2021/11/12 02:10:46;;;;;;;5.20;3.07;;;;;;;4.90;83.57;99826.72;5032716;28;20583;-70
2021/11/12 02:13:20;;;;;;;3.17;2.07;;;;;;;4.85;83.36;99834.25;5011028;28;20064;-70
2021/11/12 02:15:46;;;;;;;4.20;3.07;;;;;;;4.83;83.73;99830.94;5030708;28;20132;-70
2021/11/12 02:18:17;;;;;;;3.40;2.73;;;;;;;4.84;83.11;99826.47;5031150;28;20291;-71
2021/11/12 02:23:45;;;;;;;3.37;2.50;;;;;;;4.90;83.69;99815.31;5014093;28;20124;-69
2021/11/12 02:26:18;;;;;;;5.93;2.83;;;;;;;4.83;83.85;99803.72;5030707;28;20287;-69
2021/11/12 02:28:45;;;;;;;4.03;2.53;;;;;;;4.85;84.12;99801.75;5016513;28;20276;-71
2021/11/12 02:31:11;;;;;;;4.03;2.27;;;;;;;4.83;84.65;99799.28;5028528;28;20891;-71
2021/11/12 02:33:37;;;;;;;3.43;2.57;;;;;;;4.70;84.28;99779.53;5030377;28;20363;-69
2021/11/12 02:36:12;;;;;;;7.90;3.10;;;;;;;4.83;84.44;99803.72;5026966;28;20072;-70
2021/11/12 02:38:43;;;;;;;8.50;3.43;;;;;;;4.78;84.63;99790.16;5028575;28;20420;-69
2021/11/12 02:41:09;;;;;;;3.83;2.70;;;;;;;4.74;84.78;99792.25;5031232;28;20115;-70
2021/11/12 02:43:36;;;;;;;4.73;2.40;;;;;;;4.82;85.81;99794.16;5029487;28;20267;-70
2021/11/12 02:46:03;;;;;;;5.13;3.43;;;;;;;4.83;85.41;99798.44;5051230;28;20043;-71
2021/11/12 02:48:34;;;;;;;3.00;2.57;;;;;;;4.81;85.29;99795.13;5051160;28;20372;-72
2021/11/12 02:51:00;;;;;;;3.67;2.27;;;;;;;4.85;84.64;99796.47;5051563;28;20041;-71
2021/11/12 02:53:25;;;;;;;3.47;2.00;;;;;;;4.79;85.15;99787.34;5051089;28;20037;-70
2021/11/12 02:55:51;;;;;;;4.03;2.30;;;;;;;4.76;85.59;99794.75;5051378;28;20036;-71
2021/11/12 02:58:19;;;;;;;4.37;2.30;;;;;;;4.82;85.08;99796.78;5051313;28;20048;-71
2021/11/12 03:00:46;;;;;;;5.07;2.53;;;;;;;4.88;85.76;99799.66;5051317;28;20403;-71
2021/11/12 03:03:12;;;;;;;3.90;2.80;;;;;;;4.95;85.36;99794.63;5051444;28;20309;-69
2021/11/12 03:05:38;;;;;;;4.43;2.60;;;;;;;4.94;84.94;99795.59;5051432;28;20271;-70
2021/11/12 03:08:04;;;;;;;4.03;2.93;;;;;;;4.92;84.74;99797.56;5051150;28;20041;-69
2021/11/12 03:10:32;;;;;;;5.00;2.47;;;;;;;4.94;85.65;99795.59;5051256;28;20045;-71
2021/11/12 03:12:58;;;;;;;3.77;2.90;;;;;;;4.98;85.65;99792.50;5053889;28;20279;-71
2021/11/12 03:15:24;;;;;;;3.00;2.40;;;;;;;4.94;86.18;99785.06;5054925;28;20290;-72
2021/11/12 03:17:55;;;;;;;6.10;2.87;;;;;;;5.03;85.64;99788.59;5055363;28;20484;-70
2021/11/12 03:20:22;;;;;;;3.33;2.63;;;;;;;5.04;85.58;99791.06;5056627;28;20089;-71
2021/11/12 03:22:53;;;;;;;3.20;2.40;;;;;;;5.11;85.48;99788.66;5055261;28;20456;-70
2021/11/12 04:00:32;;;;;;;4.13;2.13;;;;;;;4.94;86.08;99806.16;5054687;28;20263;-74
2021/11/12 04:19:07;;;;;;;2.40;1.97;;;;;;;4.95;84.73;99826.28;5049206;28;20769;-70
2021/11/12 05:56:40;;;;;;;7.47;3.40;;;;;;;4.50;80.83;99884.25;5032547;28;20283;-66
2021/11/12 05:59:10;;;;;;;2.77;2.10;;;;;;;4.50;81.64;99881.63;5032211;28;20280;-67
2021/11/12 06:01:36;;;;;;;;;;;;;;;4.55;81.24;99890.75;5032634;28;20322;-68
2021/11/12 06:04:02;;;;;;;5.60;2.60;;;;;;;4.52;80.74;99890.22;5032133;28;19917;-74
2021/11/12 06:06:29;;;;;;;6.13;2.77;;;;;;;4.49;80.94;99893.16;5013387;28;20052;-69
2021/11/12 06:08:54;;;;;;;4.17;2.47;;;;;;;4.48;80.28;99899.41;5032012;28;20120;-69
2021/11/12 06:11:20;;;;;;;3.27;1.70;;;;;;;4.51;80.21;99899.94;4997834;28;20363;-71
2021/11/12 06:13:46;;;;;;;7.70;2.90;;;;;;;4.56;80.25;99897.69;5030601;28;20497;-69
2021/11/12 06:16:12;;;;;;;9.53;3.70;;;;;;;4.63;80.10;99898.81;4995805;28;20037;-71
2021/11/12 06:18:38;;;;;;;5.27;1.97;;;;;;;4.73;79.64;99916.38;5013696;28;20044;-69
2021/11/12 06:21:04;;;;;;;3.77;3.00;;;;;;;4.78;79.08;99922.03;5031735;28;20041;-68
2021/11/12 06:23:31;;;;;;;5.87;2.53;;;;;;;4.84;79.75;99927.56;5013945;28;20280;-67
2021/11/12 06:25:57;;;;;;;11.30;2.87;;;;;;;4.79;79.00;99927.16;5013839;28;20316;-63
2021/11/12 06:28:23;;;;;;;5.17;2.07;;;;;;;4.85;79.07;99939.78;5031366;28;20496;-66
2021/11/12 06:30:49;;;;;;;4.00;1.70;;;;;;;4.86;78.44;99940.59;5031609;28;20040;-64
2021/11/12 06:33:15;;;;;;;4.40;1.77;;;;;;;4.86;78.86;99945.88;5031470;28;20053;-70
2021/11/12 06:35:42;;;;;;;4.10;2.40;;;;;;;4.84;78.69;99937.28;5014117;28;20922;-69
2021/11/12 06:38:11;;;;;;;3.13;1.80;;;;;;;4.87;79.00;99956.28;5031497;28;20065;-66
2021/11/12 06:40:36;;;;;;;3.05;2.00;;;;;;;4.85;78.35;99952.97;5031382;28;20276;-69
2021/11/12 06:50:57;;;;;;;5.63;2.23;;;;;;;4.87;78.78;99964.19;5034252;28;20371;-69
2021/11/12 06:53:22;;;;;;;5.53;2.27;;;;;;;4.83;78.67;99962.84;5035047;28;20700;-67
2021/11/12 06:55:49;;;;;;;4.80;1.60;;;;;;;4.81;79.16;99961.31;5034762;28;20385;-67
2021/11/12 06:58:15;;;;;;;5.00;1.70;;;;;;;4.75;79.22;99964.53;5034638;28;20053;-67
2021/11/12 07:00:40;;;;;;;4.10;2.00;;;;;;;4.81;78.94;99967.44;5034838;28;20256;-69
2021/11/12 07:03:06;;;;;;;6.30;1.77;;;;;;;4.94;79.00;99977.66;5034927;28;20527;-65
2021/11/12 07:05:31;;;;;;;3.27;1.53;;;;;;;4.95;79.22;99977.53;5035090;28;20488;-69
2021/11/12 07:07:57;;;;;;;11.93;2.00;;;;;;;5.02;79.58;99988.31;5034784;28;20049;-68
2021/11/12 07:10:23;;;;;;;6.97;2.23;;;;;;;4.99;78.73;99993.88;5034577;28;20091;-70
2021/11/12 07:12:51;;;;;;;5.50;1.67;;;;;;;4.95;78.84;100003.91;5015930;28;20097;-68
2021/11/12 07:15:18;;;;;;;3.40;1.40;;;;;;;4.94;79.03;100001.41;5016950;28;20041;-68
2021/11/12 07:17:46;;;;;;;8.43;2.57;;;;;;;4.93;79.14;100005.03;5035073;28;20037;-68
2021/11/12 07:20:13;;;;;;;4.50;2.60;;;;;;;4.91;79.39;100001.66;5034796;28;20631;-68
2021/11/12 07:22:40;;;;;;;8.87;4.30;;;;;;;4.98;79.72;100010.69;5035073;28;20044;-65
2021/11/12 07:25:08;;;;;;;10.50;5.50;;;;;;;5.04;80.06;100012.75;5033951;28;20588;-67
2021/11/12 07:27:33;;;;;;;6.37;2.67;;;;;;;5.01;79.17;100010.41;5031905;28;20682;-68
2021/11/12 07:29:59;;;;;;;13.57;6.93;;;;;;;5.04;79.13;100015.38;5034572;28;20367;-66
2021/11/12 07:32:24;;;;;;;13.33;7.13;;;;;;;5.06;79.89;100025.78;5033673;28;20041;-66
2021/11/12 07:34:54;;;;;;;14.20;3.70;;;;;;;5.06;79.50;100009.97;5034131;28;20053;-69
2021/11/12 07:37:22;;;;;;;16.00;5.43;;;;;;;5.10;79.88;100022.72;5034508;28;20292;-65
2021/11/12 07:39:50;;;;;;;3.93;2.20;;;;;;;5.10;80.02;100028.00;5034538;28;20136;-64
2021/11/12 07:47:14;;;;;;;4.28;1.90;;;;;;;5.11;79.54;100040.22;5033816;28;20342;-63
2021/11/12 07:49:41;;;;;;;2.80;2.30;;;;;;;5.14;79.48;100053.13;5034249;28;20041;-63
2021/11/12 07:52:08;;;;;;;1.70;1.43;;;;;;;5.14;79.83;100050.47;5033985;28;20095;-63
2021/11/12 07:54:33;;;;;;;5.90;2.07;;;;;;;5.13;79.92;100058.53;5034018;28;20300;-64
2021/11/12 07:57:00;;;;;;;2.43;1.50;;;;;;;5.13;79.75;100062.00;5034378;28;20554;-63
2021/11/12 07:59:28;;;;;;;3.10;1.60;;;;;;;5.17;79.83;100055.47;5032617;28;20037;-64
2021/11/12 08:01:58;;;;;;;4.13;1.63;;;;;;;5.17;79.65;100060.75;5034059;28;20278;-65
2021/11/12 08:04:24;;;;;;;4.53;2.07;;;;;;;5.15;79.32;100061.88;5016606;28;20279;-69
2021/11/12 08:06:52;;;;;;;5.20;1.90;;;;;;;5.14;79.68;100076.88;5015540;28;20029;-67
2021/11/12 08:09:20;;;;;;;5.87;2.57;;;;;;;5.15;80.07;100075.91;5032981;28;20471;-72
2021/11/12 08:19:32;;;;;;;2.93;1.90;;;;;;;5.24;79.00;100093.53;5015877;28;20124;-71
2021/11/12 08:22:03;;;;;;;5.53;1.80;;;;;;;5.24;78.60;100097.97;5033272;28;20179;-72
2021/11/12 08:24:42;;;;;;;5.87;1.63;;;;;;;5.25;79.45;100099.66;5033690;28;20273;-72
2021/11/12 08:32:31;;;;;;;4.40;1.97;;;;;;;5.17;79.22;100108.25;5033501;28;20620;-65
2021/11/12 08:35:51;;;;;;;;;;;;;;;5.12;79.16;100121.06;5033707;28;20199;-63
2021/11/12 08:37:56;;;;;;;7.63;2.10;;;;;;;5.09;79.16;100121.34;5027046;28;19925;-64
2021/11/12 08:43:41;;;;;;;2.50;1.20;;;;;;;5.21;77.92;100135.22;5032985;28;20636;-61
2021/11/12 08:46:03;;;;;;;4.97;1.50;;;;;;;5.23;78.14;100131.47;5020084;28;20359;-71
2021/11/12 08:51:15;;;;;;;2.50;1.67;;;;;;;5.40;76.52;100142.25;5033664;28;21002;-68
2021/11/12 08:53:43;;;;;;;1.53;1.10;;;;;;;5.47;75.17;100151.25;5033062;28;20680;-69
2021/11/12 08:56:13;;;;;;;1.13;1.00;;;;;;;5.57;73.82;100152.88;5033118;28;20341;-66
2021/11/12 08:58:48;;;;;;;0.97;0.90;;;;;;;5.48;74.38;100145.81;5032865;28;20037;-67
2021/11/12 09:01:15;;;;;;;1.20;1.10;;;;;;;5.29;73.97;100120.31;5032541;28;20292;-65
2021/11/12 09:03:41;;;;;;;2.97;1.23;;;;;;;5.53;74.29;100156.78;5014582;28;20272;-67
2021/11/12 09:06:09;;;;;;;2.97;1.57;;;;;;;5.58;73.44;100164.28;5032951;28;20346;-70
2021/11/12 09:08:36;;;;;;;2.23;1.60;;;;;;;5.64;73.13;100166.34;5032741;28;20539;-69
2021/11/12 09:11:04;;;;;;;3.97;1.10;;;;;;;5.73;73.14;100169.91;5031680;28;20141;-65
2021/11/12 09:13:32;;;;;;;2.37;1.70;;;;;;;5.72;73.78;100171.72;5032594;28;20272;-65
2021/11/12 09:16:06;;;;;;;1.90;1.40;;;;;;;5.72;73.71;100187.56;5015429;28;20292;-64
2021/11/12 09:18:32;;;;;;;8.47;2.23;;;;;;;5.68;74.36;100175.63;5052582;28;20527;-60
2021/11/12 09:20:57;;;;;;;2.07;1.83;;;;;;;5.45;73.42;100158.47;5052048;28;20362;-62
2021/11/12 09:23:23;;;;;;;2.40;1.77;;;;;;;5.65;74.03;100186.50;5052423;28;20333;-64
2021/11/12 09:25:49;;;;;;;1.60;1.50;;;;;;;5.62;73.36;100200.00;5052564;28;20480;-62
2021/11/12 09:28:15;;;;;;;3.83;1.90;;;;;;;5.47;74.12;100177.66;5052042;28;20044;-61
2021/11/12 09:30:42;;;;;;;8.47;1.87;;;;;;;5.62;74.37;100207.91;5051819;28;20073;-62
2021/11/12 09:33:09;;;;;;;3.93;2.00;;;;;;;5.74;74.03;100205.91;5052332;28;20500;-62
2021/11/12 09:36:00;;;;;;;4.83;2.40;;;;;;;5.71;72.86;100217.59;5051471;28;20565;-63
2021/11/12 09:38:27;;;;;;;5.27;2.80;;;;;;;5.65;72.87;100223.47;5051912;28;20286;-63
2021/11/12 09:40:56;;;;;;;7.03;4.67;;;;;;;5.57;72.96;100232.13;5051689;28;20119;-63
2021/11/12 09:43:24;;;;;;;7.20;4.33;;;;;;;5.56;73.41;100230.47;5052187;28;20040;-64
2021/11/12 09:45:51;;;;;;;3.92;2.60;;;;;;;5.59;73.12;100226.69;5052015;28;20060;-68
2021/11/12 09:48:18;;;;;;;1.57;1.30;;;;;;;5.59;73.17;100234.63;5051745;28;20049;-64
2021/11/12 09:50:50;;;;;;;5.43;2.10;;;;;;;5.58;73.37;100246.16;5051643;28;20292;-63
2021/11/12 09:53:22;;;;;;;2.37;2.17;;;;;;;5.48;73.40;100253.25;5051447;28;20050;-64
2021/11/12 09:55:48;;;;;;;2.17;1.70;;;;;;;5.47;72.68;100257.72;5051755;28;20066;-59
2021/11/12 09:58:14;;;;;;;2.07;1.40;;;;;;;5.58;72.85;100256.75;5052041;28;20081;-59
2021/11/12 10:00:41;;;;;;;1.70;1.40;;;;;;;5.70;71.76;100254.75;5052033;28;20040;-62
2021/11/12 10:03:09;;;;;;;5.20;1.30;;;;;;;5.82;72.21;100262.38;5051762;28;20263;-61
2021/11/12 10:05:45;;;;;;;3.42;2.25;;;;;;;5.87;72.21;100270.69;5051730;28;20256;-61
2021/11/12 10:08:25;;;;;;;8.13;1.47;;;;;;;5.92;72.07;100282.66;5051856;28;20049;-67
2021/11/12 10:11:00;;;;;;;2.37;1.80;;;;;;;5.83;72.58;100279.91;5051599;28;20088;-63
2021/11/12 10:13:35;;;;;;;1.40;1.30;;;;;;;5.86;72.33;100284.88;5033762;28;20352;-61
2021/11/12 10:19:17;;;;;;;5.73;1.30;;;;;;;5.97;72.94;100299.75;5051864;28;20091;-61
2021/11/12 10:21:50;;;;;;;16.27;2.07;;;;;;;5.87;71.90;100304.22;5050929;28;20295;-61
2021/11/12 10:24:27;;;;;;;3.93;1.40;;;;;;;5.78;72.97;100308.56;5051673;28;20029;-62
2021/11/12 10:27:25;;;;;;;5.38;1.65;;;;;;;5.80;73.08;100322.47;5033333;28;20079;-62
2021/11/12 10:29:55;;;;;;;3.33;1.20;;;;;;;5.73;72.61;100320.50;5051644;28;20033;-67
2021/11/12 10:32:27;;;;;;;7.97;1.53;;;;;;;5.72;72.63;100329.41;5051684;28;20033;-63
2021/11/12 10:35:01;;;;;;;4.63;1.50;;;;;;;5.54;72.35;100331.97;5051434;28;20102;-63
2021/11/12 10:37:31;;;;;;;4.40;1.67;;;;;;;5.56;73.63;100346.69;5051511;28;20322;-64
2021/11/12 10:40:07;;;;;;;3.90;1.30;;;;;;;5.58;72.85;100352.66;5051688;28;20075;-64
2021/11/12 10:42:38;;;;;;;1.77;1.63;;;;;;;5.52;73.22;100355.88;5051567;28;20341;-64
2021/11/12 10:45:19;;;;;;;4.00;1.87;;;;;;;5.49;73.87;100350.88;5051366;28;20747;-68
2021/11/12 10:47:57;;;;;;;3.93;2.37;;;;;;;5.51;73.18;100359.50;5051247;28;20119;-63
2021/11/12 10:50:33;;;;;;;6.20;3.73;;;;;;;5.50;73.52;100363.09;5050877;28;20290;-63
2021/11/12 10:53:09;;;;;;;5.80;2.30;;;;;;;5.45;73.41;100365.31;5050765;28;20275;-62
2021/11/12 10:55:37;;;;;;;2.07;1.87;;;;;;;5.38;73.30;100376.56;5050565;28;20283;-62
2021/11/12 10:58:08;;;;;;;4.30;1.60;;;;;;;5.33;73.76;100376.16;5050470;28;20268;-62
2021/11/12 11:00:42;;;;;;;1.57;1.47;;;;;;;5.35;72.98;100384.78;5050860;28;20264;-63
2021/11/12 11:03:15;;;;;;;5.90;1.23;;;;;;;5.39;73.75;100380.88;5050947;28;20359;-63
2021/11/12 11:05:52;;;;;;;2.87;1.60;;;;;;;5.36;73.57;100391.72;5051172;28;20267;-62
2021/11/12 11:08:20;;;;;;;3.67;1.90;;;;;;;5.34;73.24;100397.16;5032837;28;20037;-63
2021/11/12 11:10:53;;;;;;;9.27;2.25;;;;;;;5.34;73.21;100394.50;5050576;28;20415;-62
2021/11/12 11:13:23;;;;;;;4.00;1.63;;;;;;;5.41;73.20;100395.59;5051343;28;20037;-62
2021/11/12 11:16:00;;;;;;;3.73;1.53;;;;;;;5.39;72.74;100394.09;5051158;28;20290;-61
2021/11/12 11:18:55;;;;;;;5.32;1.23;;;;;;;5.45;73.36;100412.00;5051372;28;20614;-61
2021/11/12 11:24:06;;;;;;;5.47;1.73;;;;;;;5.37;73.61;100411.88;5051335;28;20349;-61
2021/11/12 11:26:47;;;;;;;6.57;1.83;;;;;;;5.37;73.89;100418.00;5051194;28;20754;-61
2021/11/12 11:29:25;;;;;;;3.47;1.80;;;;;;;5.37;73.97;100420.63;5050880;28;20406;-62
2021/11/12 11:31:54;;;;;;;5.60;1.50;;;;;;;5.35;72.90;100421.75;5051219;28;20264;-62
2021/11/12 11:34:25;;;;;;;4.35;1.98;;;;;;;5.34;73.83;100438.56;5053733;28;20275;-62
2021/11/12 11:36:57;;;;;;;3.33;1.30;;;;;;;5.26;73.40;100445.38;5054551;28;20036;-61
2021/11/12 11:39:25;;;;;;;6.13;1.90;;;;;;;5.19;74.10;100452.13;5054362;28;20433;-61
2021/11/12 11:41:52;;;;;;;5.00;1.90;;;;;;;5.15;74.09;100442.81;5054250;28;20279;-62
2021/11/12 11:44:22;;;;;;;7.23;2.90;;;;;;;5.22;74.41;100449.25;5054542;28;20041;-62
2021/11/12 11:46:52;;;;;;;7.03;3.07;;;;;;;5.21;74.43;100455.50;5054348;28;20302;-62
2021/11/12 11:49:24;;;;;;;9.43;3.50;;;;;;;5.24;74.25;100443.84;5054319;28;20279;-62
2021/11/12 11:51:56;;;;;;;2.77;1.73;;;;;;;5.24;73.46;100447.31;5054124;28;20295;-63
2021/11/12 11:54:35;;;;;;;6.27;1.10;;;;;;;5.24;73.33;100457.88;5054060;28;20827;-62
2021/11/12 11:57:13;;;;;;;3.30;2.17;;;;;;;5.23;73.62;100461.47;5054315;28;20278;-62
2021/11/12 11:59:40;;;;;;;2.27;1.53;;;;;;;5.22;73.28;100467.72;5054345;28;20039;-62
2021/11/12 12:02:12;;;;;;;2.37;1.70;;;;;;;5.21;73.56;100466.06;5054320;28;20287;-62
2021/11/12 12:04:40;;;;;;;4.93;1.70;;;;;;;5.23;73.55;100465.94;5053785;28;20294;-63
2021/11/12 12:07:15;;;;;;;2.75;1.80;;;;;;;5.23;72.78;100466.75;5054166;28;20041;-62
2021/11/12 12:09:59;;;;;;;3.73;2.43;;;;;;;5.22;73.04;100475.66;5054093;28;20083;-63
2021/11/12 12:12:30;;;;;;;3.07;1.50;;;;;;;5.25;73.28;100474.53;5054143;28;20681;-62
2021/11/12 12:15:20;;;;;;;6.13;2.07;;;;;;;5.20;73.10;100482.88;5053893;28;20270;-62
2021/11/12 12:17:48;;;;;;;4.23;1.93;;;;;;;5.21;72.81;100476.63;5039165;28;20311;-62
2021/11/12 12:41:26;;;;;;;6.53;1.53;;;;;;;4.81;73.21;100528.53;5033421;28;20315;-61
2021/11/12 13:25:58;;;;;;;4.20;2.93;;;;;;;4.82;74.58;100609.34;5032159;28;20276;-64
2021/11/12 13:28:44;;;;;;;1.77;1.47;;;;;;;4.83;73.64;100624.22;5032266;28;20810;-63
2021/11/12 13:31:16;;;;;;;2.43;1.90;;;;;;;4.84;74.40;100612.72;5031580;28;20362;-65
2021/11/12 13:33:47;;;;;;;4.17;1.63;;;;;;;4.76;73.49;100629.19;5032392;28;20287;-61
2021/11/12 13:36:31;;;;;;;8.50;2.17;;;;;;;4.75;74.30;100624.88;5032024;28;20285;-64
2021/11/12 13:39:16;;;;;;;6.97;2.03;;;;;;;4.77;74.67;100628.22;5010996;28;20358;-67
2021/11/12 13:41:54;;;;;;;3.97;2.30;;;;;;;4.80;74.13;100635.03;5032115;28;20284;-66
2021/11/12 13:44:25;;;;;;;7.17;1.73;;;;;;;4.77;74.18;100649.31;5032146;28;20282;-64
2021/11/12 13:46:53;;;;;;;2.37;1.67;;;;;;;4.72;74.06;100655.97;5032234;28;20374;-62
2021/11/12 13:49:40;;;;;;;1.85;1.27;;;;;;;4.65;74.31;100656.47;5032313;28;20307;-64
2021/11/12 13:52:16;;;;;;;5.30;1.87;;;;;;;4.72;74.24;100655.97;5032549;28;20037;-69
2021/11/12 13:54:55;;;;;;;6.93;2.27;;;;;;;4.73;75.01;100657.63;5032219;28;20623;-64
2021/11/12 13:57:24;;;;;;;3.80;1.50;;;;;;;4.74;75.06;100675.13;5032000;28;20268;-64
2021/11/12 13:59:54;;;;;;;3.43;1.67;;;;;;;4.73;75.07;100676.09;5032062;28;20272;-64
2021/11/12 14:02:21;;;;;;;2.80;1.60;;;;;;;4.72;74.11;100685.81;5030498;28;20647;-62
2021/11/12 14:04:46;;;;;;;4.37;2.13;;;;;;;4.72;74.27;100692.88;5031894;28;20264;-63
2021/11/12 14:07:22;;;;;;;2.23;1.70;;;;;;;4.70;74.53;100694.81;5031766;28;20651;-65
2021/11/12 14:10:06;;;;;;;2.40;1.63;;;;;;;4.73;74.87;100694.56;5031590;28;20799;-64
2021/11/12 14:12:32;;;;;;;4.80;2.20;;;;;;;4.71;75.20;100696.50;5031477;28;20752;-65
2021/11/12 14:15:17;;;;;;;2.70;1.60;;;;;;;4.76;74.42;100704.88;5031726;28;20283;-63
2021/11/12 14:18:05;;;;;;;5.87;1.97;;;;;;;4.78;74.54;100713.47;5031826;28;20278;-64
2021/11/12 14:20:33;;;;;;;3.10;2.00;;;;;;;4.78;74.88;100708.22;5010856;28;20269;-62
2021/11/12 14:23:15;;;;;;;2.93;1.50;;;;;;;4.71;74.80;100697.34;5031619;28;20326;-65
2021/11/12 14:26:18;;;;;;;3.30;2.13;;;;;;;4.71;75.77;100707.88;5031576;28;20037;-62
2021/11/12 14:28:53;;;;;;;6.43;2.13;;;;;;;4.71;74.99;100729.00;5014361;28;20288;-63
2021/11/12 14:34:45;;;;;;;4.57;1.90;;;;;;;4.60;74.78;100736.91;5031426;28;20269;-64
2021/11/12 14:37:16;;;;;;;4.43;2.10;;;;;;;4.62;75.43;100741.09;5031595;28;20438;-62
2021/11/12 14:40:00;;;;;;;2.00;1.67;;;;;;;4.53;74.44;100730.47;5031416;28;20485;-62
2021/11/12 14:42:54;;;;;;;4.53;3.20;;;;;;;4.61;74.09;100749.16;5031452;28;20690;-65
2021/11/12 14:47:51;;;;;;;7.37;4.07;;;;;;;4.68;75.33;100754.78;5031053;28;20076;-70
2021/11/12 14:53:18;;;;;;;6.35;2.60;;;;;;;4.66;75.20;100763.66;5031112;28;20723;-63
2021/11/12 14:55:47;;;;;;;5.23;2.10;;;;;;;4.72;76.03;100772.88;5030238;28;20580;-62
2021/11/12 14:58:15;;;;;;;6.30;2.90;;;;;;;4.73;75.65;100781.63;5008781;28;20269;-64
2021/11/12 15:00:41;;;;;;;6.13;1.85;;;;;;;4.70;75.75;100784.50;5029712;28;20029;-63
2021/11/12 15:03:06;;;;;;;2.83;2.10;;;;;;;4.72;75.24;100782.59;5030334;28;20052;-65
2021/11/12 15:05:32;;;;;;;2.67;1.80;;;;;;;4.69;75.26;100794.22;5030572;28;20083;-63
2021/11/12 15:08:10;;;;;;;4.27;2.10;;;;;;;4.66;75.13;100790.03;5030786;28;20044;-63
2021/11/12 15:10:35;;;;;;;9.03;2.70;;;;;;;4.70;75.28;100795.06;5035029;28;20037;-63
2021/11/12 15:13:01;;;;;;;7.97;2.33;;;;;;;4.68;75.10;100807.53;5034943;28;20314;-64
2021/11/12 15:15:26;;;;;;;6.97;2.40;;;;;;;4.70;74.85;100816.16;5034911;28;20048;-65
2021/11/12 15:17:54;;;;;;;5.63;2.50;;;;;;;4.61;74.12;100808.00;5013997;28;20396;-62
2021/11/12 15:20:20;;;;;;;5.33;1.60;;;;;;;4.55;74.07;100813.78;5030955;28;20459;-61
2021/11/12 15:26:04;;;;;;;6.23;1.77;;;;;;;4.59;74.96;100819.66;5034781;28;20256;-63
2021/11/12 15:28:14;;;;;;;;;;;;;;;4.61;74.71;100826.47;5020714;28;20079;-64
2021/11/12 15:30:47;;;;;;;4.97;1.70;;;;;;;4.57;74.50;100826.84;5034539;28;19921;-64
2021/11/12 15:33:16;;;;;;;7.07;4.37;;;;;;;4.58;74.76;100839.06;5013766;28;20323;-62
2021/11/12 15:35:47;;;;;;;;;;;;;;;4.59;74.87;100846.03;5034458;28;20319;-64
2021/11/12 15:38:25;;;;;;;95.73;37.47;;;;;;;4.50;74.47;100842.34;5034538;28;19921;-63
2021/11/12 15:41:01;;;;;;;15.27;4.07;;;;;;;4.46;74.86;100851.44;5034030;28;20704;-63
2021/11/12 15:46:10;;;;;;;117.07;45.30;;;;;;;4.49;75.20;100861.75;5032694;28;20132;-70
2021/11/12 15:48:39;;;;;;;99.30;43.30;;;;;;;4.51;75.26;100870.38;5034176;28;20342;-71
2021/11/12 15:56:40;;;;;;;44.10;21.63;;;;;;;4.59;74.29;100889.06;5034371;28;20936;-66
2021/11/12 16:09:45;;;;;;;58.30;34.80;;;;;;;4.58;74.40;100918.22;5033769;28;20454;-66
2021/11/12 16:12:21;;;;;;;21.13;11.77;;;;;;;4.54;74.44;100911.50;4997349;28;20325;-62
2021/11/12 16:15:03;;;;;;;27.00;16.10;;;;;;;4.55;74.95;100908.75;5014111;28;20718;-66
2021/11/12 16:25:23;;;;;;;53.72;27.45;;;;;;;4.47;74.56;100940.16;4988981;28;20033;-67
2021/11/12 16:28:00;;;;;;;89.83;45.37;;;;;;;4.40;74.56;100938.97;5033306;28;20088;-57
2021/11/12 16:30:33;;;;;;;123.67;58.27;;;;;;;4.48;74.78;100944.47;5033361;28;20279;-65
2021/11/12 16:33:00;;;;;;;143.10;67.47;;;;;;;4.49;75.04;100956.69;5032455;28;20315;-69
2021/11/12 16:35:33;;;;;;;30.40;13.67;;;;;;;4.47;75.01;100940.16;5041528;28;20378;-66
2021/11/12 16:38:18;;;;;;;45.97;22.37;;;;;;;4.50;75.74;100963.66;5053419;28;20287;-68
2021/11/12 16:40:48;;;;;;;47.43;24.80;;;;;;;4.46;74.28;100966.66;5053386;28;20642;-62
2021/11/12 16:43:32;;;;;;;20.00;10.03;;;;;;;4.47;74.67;100963.88;5053370;28;20267;-66
2021/11/12 16:53:36;;;;;;;20.03;10.03;;;;;;;4.48;74.77;100980.56;5053542;28;20040;-66
2021/11/12 16:58:46;;;;;;;18.00;9.50;;;;;;;4.47;74.69;100992.91;5053009;28;20275;-65
2021/11/12 17:04:05;;;;;;;81.23;44.80;;;;;;;4.46;74.73;100995.66;5032997;28;20367;-65
2021/11/12 17:06:36;;;;;;;23.57;13.47;;;;;;;4.33;74.26;100966.72;5033311;28;20265;-64
2021/11/12 17:46:45;;;;;;;3.47;2.37;;;;;;;4.44;74.32;101064.34;5051987;28;20288;-64
2021/11/12 17:49:18;;;;;;;4.93;2.87;;;;;;;4.43;74.51;101067.09;5052019;28;20742;-63
2021/11/12 18:02:19;;;;;;;7.97;4.47;;;;;;;4.45;75.09;101087.13;5051826;28;20268;-63
2021/11/12 18:07:38;;;;;;;4.10;2.43;;;;;;;4.49;74.46;101091.22;5052036;28;20654;-67
2021/11/12 18:13:07;;;;;;;3.17;2.47;;;;;;;4.46;75.31;101107.25;5051033;28;20875;-59
2021/11/12 18:24:38;;;;;;;5.67;3.07;;;;;;;4.46;75.39;101131.00;5051550;28;20484;-63
2021/11/12 21:45:21;;;;;;;6.27;2.70;;;;;;;2.98;83.18;101451.25;5032401;28;20264;-68